Time;durP1;ratioP1;P1;durP2;ratioP2;P2;SDS_P1;SDS_P2;PMS_P1;PMS_P2;Temp;Humidity;BMP_temperature;BMP_pressure;BME280_temperature;BME280_humidity;BME280_pressure;Samples;Min_cycle;Max_cycle;Signal;HPM_P1;HPM_P2
2024/02/04 00:00:30;;;;;;;2.88;1.20;;;19.50;58.60;;;;;;5004996;28;20022;-66
2024/02/04 00:02:55;;;;;;;2.35;1.05;;;19.50;58.50;;;;;;5000421;28;20072;-66
2024/02/04 00:05:21;;;;;;;3.60;1.27;;;19.50;58.50;;;;;;5019247;28;20037;-66
2024/02/04 00:07:47;;;;;;;3.38;1.30;;;19.50;58.50;;;;;;5020977;28;20131;-66
2024/02/04 00:10:12;;;;;;;4.18;0.98;;;19.50;58.40;;;;;;5023675;28;20508;-68
2024/02/04 00:12:39;;;;;;;2.70;1.20;;;19.50;58.50;;;;;;5014486;28;20048;-67
2024/02/04 00:15:05;;;;;;;1.65;1.15;;;19.50;58.40;;;;;;5020233;28;20488;-68
2024/02/04 00:17:32;;;;;;;2.03;0.98;;;19.50;58.40;;;;;;5012985;28;20068;-68
2024/02/04 00:19:59;;;;;;;2.17;1.10;;;19.50;58.40;;;;;;4999113;28;20025;-68
2024/02/04 00:22:24;;;;;;;2.33;1.10;;;19.50;59.10;;;;;;5018118;28;20052;-67
2024/02/04 00:24:50;;;;;;;7.30;1.42;;;19.50;58.30;;;;;;5002874;28;20638;-67
2024/02/04 00:27:15;;;;;;;2.92;1.15;;;19.50;58.30;;;;;;4994176;28;20029;-67
2024/02/04 00:29:41;;;;;;;2.83;0.90;;;19.50;58.40;;;;;;5016947;28;20037;-67
2024/02/04 00:32:06;;;;;;;1.70;1.00;;;19.50;58.30;;;;;;5011116;28;20113;-67
2024/02/04 00:34:32;;;;;;;1.70;0.82;;;19.50;58.30;;;;;;5021171;28;20493;-67
2024/02/04 00:36:57;;;;;;;3.25;0.82;;;19.50;58.30;;;;;;4998501;28;20048;-67
2024/02/04 00:39:23;;;;;;;1.95;0.88;;;19.50;58.30;;;;;;5013595;28;20052;-67
2024/02/04 00:41:48;;;;;;;2.20;1.02;;;19.50;58.20;;;;;;5017044;28;20033;-67
2024/02/04 00:44:14;;;;;;;2.25;0.98;;;19.50;58.20;;;;;;5018701;28;20030;-67
2024/02/04 00:46:39;;;;;;;1.38;0.68;;;19.50;58.20;;;;;;4992472;28;20148;-67
2024/02/04 00:49:05;;;;;;;2.45;0.80;;;19.50;58.30;;;;;;5019268;28;20079;-67
2024/02/04 00:51:30;;;;;;;1.00;0.77;;;19.50;58.10;;;;;;5016135;28;20030;-68
2024/02/04 00:53:56;;;;;;;1.73;1.13;;;19.50;58.10;;;;;;5020561;28;20128;-67
2024/02/04 00:56:21;;;;;;;1.48;0.90;;;19.50;58.10;;;;;;5012123;28;20381;-67
2024/02/04 00:58:46;;;;;;;1.75;0.90;;;19.50;58.10;;;;;;4998909;28;20045;-67
2024/02/04 01:01:12;;;;;;;1.65;0.98;;;19.50;58.20;;;;;;5002671;28;20041;-67
2024/02/04 01:03:38;;;;;;;1.05;0.90;;;19.50;58.20;;;;;;5001133;28;20108;-67
2024/02/04 01:06:03;;;;;;;0.70;0.60;;;19.50;58.10;;;;;;5019753;28;20423;-67
2024/02/04 01:08:29;;;;;;;1.35;0.77;;;19.50;58.10;;;;;;5015583;28;20116;-67
2024/02/04 01:10:54;;;;;;;1.25;0.60;;;19.50;58.20;;;;;;5000610;28;20104;-67
2024/02/04 01:13:20;;;;;;;1.95;0.98;;;19.40;58.20;;;;;;5019473;28;20080;-67
2024/02/04 01:15:45;;;;;;;1.23;0.65;;;19.40;58.10;;;;;;5019260;28;20041;-67
2024/02/04 01:18:11;;;;;;;1.23;0.70;;;19.40;58.30;;;;;;5020190;28;20026;-67
2024/02/04 01:20:36;;;;;;;1.23;0.68;;;19.40;58.20;;;;;;5017143;28;20040;-67
2024/02/04 01:23:02;;;;;;;1.75;0.82;;;19.40;58.20;;;;;;5020543;28;20041;-67
2024/02/04 01:25:28;;;;;;;3.58;1.00;;;19.40;58.30;;;;;;5020086;28;20113;-68
2024/02/04 01:27:53;;;;;;;1.35;0.60;;;19.40;58.30;;;;;;5004663;28;20047;-67
2024/02/04 01:30:19;;;;;;;1.13;0.55;;;19.30;58.20;;;;;;5019082;28;20025;-67
2024/02/04 01:32:45;;;;;;;0.98;0.70;;;19.40;58.30;;;;;;5017775;28;20050;-68
2024/02/04 01:35:11;;;;;;;2.13;0.65;;;19.30;58.40;;;;;;5018153;28;20030;-67
2024/02/04 01:37:36;;;;;;;1.65;0.80;;;19.30;58.40;;;;;;5022170;28;20033;-67
2024/02/04 01:40:02;;;;;;;2.08;0.80;;;19.30;58.40;;;;;;5023810;28;20104;-67
2024/02/04 01:42:27;;;;;;;0.75;0.50;;;19.20;58.40;;;;;;5004416;28;20683;-67
2024/02/04 01:44:53;;;;;;;1.20;0.80;;;19.30;58.50;;;;;;5023416;28;20088;-67
2024/02/04 01:47:20;;;;;;;0.82;0.40;;;19.20;58.50;;;;;;5020101;28;20045;-67
2024/02/04 01:49:45;;;;;;;1.33;0.63;;;19.20;58.50;;;;;;5021363;28;20033;-67
2024/02/04 01:52:12;;;;;;;1.75;0.55;;;19.20;58.50;;;;;;5004886;28;20025;-67
2024/02/04 01:54:40;;;;;;;1.27;0.85;;;19.20;58.60;;;;;;5002658;28;20052;-67
2024/02/04 01:57:07;;;;;;;2.58;0.60;;;19.20;58.60;;;;;;5003826;28;20633;-67
2024/02/04 01:59:32;;;;;;;0.80;0.50;;;19.10;58.60;;;;;;5020451;28;20033;-67
2024/02/04 02:02:01;;;;;;;3.20;0.73;;;19.10;58.60;;;;;;5005660;28;20034;-67
2024/02/04 02:04:26;;;;;;;0.90;0.68;;;19.10;58.60;;;;;;5018022;28;20694;-67
2024/02/04 02:06:55;;;;;;;1.23;0.60;;;19.10;58.70;;;;;;5022771;28;20041;-67
2024/02/04 02:09:21;;;;;;;4.13;0.80;;;19.10;58.70;;;;;;5020174;28;20029;-67
2024/02/04 02:12:03;;;;;;;1.13;0.60;;;19.10;58.60;;;;;;5007022;28;20058;-67
2024/02/04 02:14:33;;;;;;;0.68;0.60;;;19.10;58.70;;;;;;5004262;28;20053;-68
2024/02/04 02:17:04;;;;;;;1.17;0.52;;;19.10;58.70;;;;;;5020221;28;20060;-67
2024/02/04 02:19:57;;;;;;;3.28;0.57;;;19.10;58.70;;;;;;5020594;28;20033;-68
2024/02/04 02:22:30;;;;;;;1.02;0.40;;;19.00;58.70;;;;;;5021052;28;20095;-67
2024/02/04 02:24:57;;;;;;;0.63;0.40;;;19.00;58.70;;;;;;5021969;28;20057;-67
2024/02/04 02:27:22;;;;;;;1.88;0.52;;;19.10;58.80;;;;;;5021730;28;20044;-65
2024/02/04 02:29:48;;;;;;;1.50;0.43;;;19.10;58.60;;;;;;5004118;28;20033;-67
2024/02/04 02:32:14;;;;;;;1.48;0.60;;;19.20;58.30;;;;;;5017855;28;20048;-67
2024/02/04 02:34:41;;;;;;;0.85;0.50;;;19.20;58.30;;;;;;5019096;28;20401;-67
2024/02/04 02:37:16;;;;;;;0.80;0.60;;;19.30;58.00;;;;;;5023285;28;20029;-67
2024/02/04 02:40:10;;;;;;;0.68;0.40;;;19.40;57.90;;;;;;5018751;28;20030;-67
2024/02/04 02:42:37;;;;;;;0.60;0.30;;;19.50;57.60;;;;;;5019221;28;20080;-67
2024/02/04 02:45:05;;;;;;;1.13;0.52;;;19.60;57.30;;;;;;5021971;28;20112;-67
2024/02/04 02:47:31;;;;;;;0.60;0.40;;;19.60;57.00;;;;;;5020893;28;20037;-67
2024/02/04 02:49:57;;;;;;;1.02;0.68;;;19.70;56.90;;;;;;5021913;28;20056;-67
2024/02/04 02:52:23;;;;;;;0.68;0.40;;;19.80;56.70;;;;;;5020195;28;20739;-66
2024/02/04 02:54:48;;;;;;;1.55;0.60;;;19.80;56.60;;;;;;5019141;28;20057;-67
2024/02/04 02:57:14;;;;;;;1.08;0.77;;;19.90;56.40;;;;;;5018700;28;20500;-67
2024/02/04 02:59:39;;;;;;;0.75;0.73;;;19.90;56.30;;;;;;5018361;28;24583;-67
2024/02/04 03:02:05;;;;;;;1.25;0.60;;;20.00;56.20;;;;;;4999360;28;20270;-66
2024/02/04 03:04:30;;;;;;;0.55;0.55;;;20.00;56.10;;;;;;4990826;28;20452;-67
2024/02/04 03:06:56;;;;;;;2.40;0.73;;;20.00;56.00;;;;;;4995986;28;20041;-68
2024/02/04 03:09:22;;;;;;;0.50;0.40;;;20.00;56.00;;;;;;5007544;28;20522;-67
2024/02/04 03:11:47;;;;;;;0.95;0.30;;;20.00;56.60;;;;;;5018083;28;20041;-68
2024/02/04 03:14:16;;;;;;;2.53;0.38;;;20.00;56.00;;;;;;5019138;28;20037;-68
2024/02/04 03:16:44;;;;;;;1.48;0.30;;;20.00;56.00;;;;;;5018588;28;20032;-68
2024/02/04 03:19:09;;;;;;;0.40;0.32;;;20.00;56.00;;;;;;5017059;28;20042;-67
2024/02/04 03:21:35;;;;;;;0.73;0.50;;;19.90;56.00;;;;;;5019983;28;20029;-67
2024/02/04 03:24:00;;;;;;;1.45;0.50;;;19.90;56.10;;;;;;5017867;28;20029;-68
2024/02/04 03:26:26;;;;;;;0.77;0.50;;;19.90;56.10;;;;;;5003239;28;20042;-68
2024/02/04 03:28:51;;;;;;;1.35;0.50;;;19.90;56.20;;;;;;5018616;28;20428;-68
2024/02/04 03:31:24;;;;;;;0.75;0.47;;;19.80;56.30;;;;;;5004033;28;20152;-67
2024/02/04 03:33:50;;;;;;;0.52;0.40;;;19.80;56.40;;;;;;5011269;28;20425;-68
2024/02/04 03:36:24;;;;;;;0.93;0.50;;;19.80;56.40;;;;;;5000892;28;20489;-67
2024/02/04 03:38:50;;;;;;;1.20;0.57;;;19.70;56.40;;;;;;5022114;28;20034;-67
2024/02/04 03:41:16;;;;;;;0.50;0.35;;;19.70;56.50;;;;;;5020427;28;20033;-67
2024/02/04 03:43:41;;;;;;;0.40;0.40;;;19.60;56.60;;;;;;5020799;28;20045;-67
2024/02/04 03:46:07;;;;;;;1.00;0.30;;;19.60;56.60;;;;;;5022466;28;20033;-67
2024/02/04 03:48:34;;;;;;;0.85;0.30;;;19.60;56.70;;;;;;5021803;28;20029;-67
2024/02/04 03:50:59;;;;;;;0.47;0.35;;;19.60;56.80;;;;;;5018333;28;20076;-68
2024/02/04 03:53:25;;;;;;;1.13;0.40;;;19.60;56.90;;;;;;5019574;28;20033;-67
2024/02/04 03:55:51;;;;;;;2.30;0.40;;;19.50;56.80;;;;;;5005978;28;20120;-67
2024/02/04 03:58:19;;;;;;;0.50;0.30;;;19.50;57.00;;;;;;5017346;28;20030;-68
2024/02/04 04:00:45;;;;;;;0.40;0.30;;;19.50;57.00;;;;;;5013932;28;20042;-69
2024/02/04 04:03:10;;;;;;;0.52;0.50;;;19.40;57.00;;;;;;5011378;28;20214;-68
2024/02/04 04:05:36;;;;;;;0.90;0.50;;;19.40;57.00;;;;;;5011633;28;20045;-68
2024/02/04 04:08:01;;;;;;;0.68;0.43;;;19.40;57.20;;;;;;5019021;28;20046;-68
2024/02/04 04:10:27;;;;;;;1.70;0.40;;;19.30;57.20;;;;;;5020252;28;20033;-68
2024/02/04 04:12:52;;;;;;;0.70;0.40;;;19.30;57.20;;;;;;5022649;28;20109;-67
2024/02/04 04:15:18;;;;;;;0.55;0.32;;;19.30;57.20;;;;;;5002309;28;20056;-68
2024/02/04 04:17:43;;;;;;;0.80;0.43;;;19.30;57.30;;;;;;5021295;28;20034;-68
2024/02/04 04:20:09;;;;;;;0.43;0.40;;;19.30;57.30;;;;;;5019390;28;20026;-66
2024/02/04 04:22:35;;;;;;;0.50;0.43;;;19.30;57.40;;;;;;5001307;28;20688;-67
2024/02/04 04:25:00;;;;;;;0.50;0.40;;;19.30;57.30;;;;;;5021332;28;20113;-68
2024/02/04 04:27:25;;;;;;;0.30;0.30;;;19.30;57.40;;;;;;5018208;28;20099;-66
2024/02/04 04:29:51;;;;;;;0.85;0.60;;;19.30;57.30;;;;;;5019861;28;20045;-68
2024/02/04 04:32:16;;;;;;;0.38;0.22;;;19.30;57.40;;;;;;5003439;28;20052;-68
2024/02/04 04:34:42;;;;;;;0.85;0.43;;;19.30;57.40;;;;;;5020464;28;20030;-69
2024/02/04 04:37:07;;;;;;;1.48;0.50;;;19.20;57.40;;;;;;5020218;28;20029;-68
2024/02/04 04:39:33;;;;;;;1.08;0.52;;;19.20;57.40;;;;;;5021897;28;20483;-68
2024/02/04 04:41:58;;;;;;;0.32;0.20;;;19.20;57.50;;;;;;5017127;28;20443;-67
2024/02/04 04:44:24;;;;;;;0.30;0.30;;;19.20;57.40;;;;;;5020817;28;20125;-67
2024/02/04 04:46:49;;;;;;;0.60;0.43;;;19.20;57.50;;;;;;5017653;28;20043;-67
2024/02/04 04:49:15;;;;;;;1.13;0.60;;;19.20;57.60;;;;;;5019666;28;20021;-67
2024/02/04 04:51:45;;;;;;;1.63;0.40;;;19.20;57.50;;;;;;5019646;28;20447;-67
2024/02/04 04:54:11;;;;;;;0.55;0.30;;;19.20;57.60;;;;;;5023529;28;20052;-66
2024/02/04 04:56:40;;;;;;;0.80;0.38;;;19.20;58.30;;;;;;5006745;28;20045;-66
2024/02/04 04:59:09;;;;;;;3.05;0.30;;;19.10;57.60;;;;;;5025084;28;20091;-67
2024/02/04 05:01:35;;;;;;;2.28;0.30;;;19.10;57.60;;;;;;5023174;28;20049;-66
2024/02/04 05:04:01;;;;;;;1.30;0.40;;;19.10;57.60;;;;;;5023159;28;20030;-68
2024/02/04 05:06:26;;;;;;;1.48;0.38;;;19.10;57.60;;;;;;5024517;28;20102;-66
2024/02/04 05:08:52;;;;;;;1.02;0.60;;;19.10;57.60;;;;;;5021632;28;20043;-67
2024/02/04 05:11:18;;;;;;;0.95;0.30;;;19.10;57.70;;;;;;5022493;28;20132;-66
2024/02/04 05:13:43;;;;;;;0.40;0.22;;;19.10;57.70;;;;;;5024725;28;20168;-67
2024/02/04 05:16:09;;;;;;;1.50;0.50;;;19.00;57.70;;;;;;5030428;28;20037;-66
2024/02/04 05:18:34;;;;;;;1.02;0.40;;;19.10;57.70;;;;;;5024999;28;20029;-67
2024/02/04 05:21:02;;;;;;;0.32;0.32;;;19.00;57.70;;;;;;5005904;28;20503;-68
2024/02/04 05:23:28;;;;;;;0.30;0.30;;;19.10;57.70;;;;;;5025071;28;20103;-67
2024/02/04 05:25:53;;;;;;;2.20;0.38;;;19.00;57.70;;;;;;5023766;28;20497;-67
2024/02/04 05:28:19;;;;;;;0.40;0.40;;;19.00;57.60;;;;;;5023540;28;21332;-67
2024/02/04 05:30:44;;;;;;;1.65;0.65;;;19.00;57.60;;;;;;5024287;28;20053;-66
2024/02/04 05:33:13;;;;;;;0.60;0.47;;;19.00;58.30;;;;;;5022994;28;20029;-67
2024/02/04 05:35:41;;;;;;;1.00;0.38;;;19.00;57.70;;;;;;5023812;28;20079;-66
2024/02/04 05:38:06;;;;;;;0.28;0.28;;;19.00;57.70;;;;;;5022960;28;20028;-67
2024/02/04 05:40:32;;;;;;;0.65;0.30;;;19.00;57.70;;;;;;5024158;28;20022;-67
2024/02/04 05:42:57;;;;;;;0.32;0.20;;;19.00;57.70;;;;;;5028456;28;20026;-68
2024/02/04 05:45:23;;;;;;;1.17;0.45;;;19.00;57.60;;;;;;5030080;28;20030;-67
2024/02/04 05:47:48;;;;;;;0.20;0.20;;;19.10;57.70;;;;;;5004499;28;20132;-68
2024/02/04 05:50:14;;;;;;;0.65;0.40;;;19.10;57.60;;;;;;5023317;28;20037;-67
2024/02/04 05:52:39;;;;;;;0.65;0.40;;;19.10;57.60;;;;;;5022388;28;20038;-66
2024/02/04 05:55:05;;;;;;;1.15;0.30;;;19.10;57.60;;;;;;5032256;28;20032;-67
2024/02/04 05:57:31;;;;;;;0.40;0.22;;;19.00;57.60;;;;;;5019553;28;20397;-65
2024/02/04 05:59:59;;;;;;;0.63;0.40;;;19.10;57.60;;;;;;5025361;28;20026;-67
2024/02/04 06:02:24;;;;;;;0.65;0.32;;;19.10;57.50;;;;;;5021682;28;20044;-66
2024/02/04 06:04:50;;;;;;;0.40;0.40;;;19.10;57.40;;;;;;5023380;28;20041;-66
2024/02/04 06:07:15;;;;;;;0.40;0.30;;;19.10;57.40;;;;;;5025247;28;20884;-66
2024/02/04 06:09:41;;;;;;;0.43;0.22;;;19.00;57.30;;;;;;5023951;28;20018;-66
2024/02/04 06:12:07;;;;;;;1.52;0.60;;;19.10;57.40;;;;;;5022673;28;20021;-66
2024/02/04 06:14:34;;;;;;;1.00;0.30;;;19.10;57.40;;;;;;5022322;28;20076;-66
2024/02/04 06:17:00;;;;;;;0.90;0.50;;;19.10;57.30;;;;;;5023602;28;20156;-65
2024/02/04 06:19:25;;;;;;;0.95;0.40;;;19.10;57.40;;;;;;5005044;28;21385;-66
2024/02/04 06:21:51;;;;;;;0.35;0.30;;;19.10;57.40;;;;;;5021316;28;20034;-66
2024/02/04 06:24:16;;;;;;;0.50;0.28;;;19.10;57.40;;;;;;5026093;28;20071;-66
2024/02/04 06:26:42;;;;;;;0.60;0.43;;;19.10;57.40;;;;;;5023614;28;20044;-67
2024/02/04 06:29:07;;;;;;;1.02;0.30;;;19.00;57.40;;;;;;5021092;28;20038;-66
2024/02/04 06:31:33;;;;;;;2.03;0.20;;;19.00;57.40;;;;;;5022853;28;20049;-66
2024/02/04 06:33:59;;;;;;;0.20;0.20;;;19.00;57.30;;;;;;5021847;28;20092;-67
2024/02/04 06:36:24;;;;;;;0.30;0.13;;;19.00;57.40;;;;;;5022889;28;20344;-66
2024/02/04 06:38:50;;;;;;;0.40;0.30;;;19.00;57.40;;;;;;5021673;28;20041;-66
2024/02/04 06:41:15;;;;;;;0.30;0.20;;;19.00;57.30;;;;;;5022052;28;20036;-66
2024/02/04 06:43:41;;;;;;;0.52;0.30;;;19.00;57.30;;;;;;5021988;28;20172;-66
2024/02/04 06:46:06;;;;;;;0.50;0.30;;;19.00;57.40;;;;;;5025632;28;20045;-66
2024/02/04 06:48:32;;;;;;;0.60;0.22;;;19.00;57.30;;;;;;5020375;28;20018;-66
2024/02/04 06:50:57;;;;;;;0.50;0.20;;;19.00;57.30;;;;;;5005568;28;20033;-66
2024/02/04 06:53:23;;;;;;;0.35;0.30;;;19.00;57.30;;;;;;5022024;28;20097;-66
2024/02/04 06:55:48;;;;;;;0.30;0.20;;;19.00;57.30;;;;;;5005311;28;21118;-66
2024/02/04 06:58:14;;;;;;;0.95;0.40;;;19.00;57.30;;;;;;5019837;28;20033;-66
2024/02/04 07:00:39;;;;;;;0.70;0.47;;;19.00;57.20;;;;;;5025060;28;20465;-66
2024/02/04 07:03:05;;;;;;;0.43;0.30;;;19.00;57.20;;;;;;5024439;28;20055;-66
2024/02/04 07:05:32;;;;;;;0.50;0.32;;;19.00;57.20;;;;;;5024933;28;20052;-66
2024/02/04 07:07:57;;;;;;;0.20;0.10;;;19.00;57.30;;;;;;5019038;28;20034;-66
2024/02/04 07:10:23;;;;;;;0.40;0.30;;;19.00;57.20;;;;;;5023333;28;20100;-66
2024/02/04 07:12:48;;;;;;;0.15;0.15;;;19.00;57.30;;;;;;5020869;28;20133;-67
2024/02/04 07:15:13;;;;;;;1.60;0.20;;;19.00;57.20;;;;;;5020974;28;20484;-65
2024/02/04 07:17:39;;;;;;;0.22;0.20;;;19.00;57.30;;;;;;5020607;28;20025;-66
2024/02/04 07:20:05;;;;;;;1.50;0.68;;;19.00;57.20;;;;;;5005611;28;20896;-66
2024/02/04 07:22:31;;;;;;;0.20;0.20;;;19.00;57.20;;;;;;5020992;28;20030;-65
2024/02/04 07:24:56;;;;;;;0.52;0.20;;;19.00;57.10;;;;;;5022494;28;20048;-67
2024/02/04 07:27:22;;;;;;;0.28;0.28;;;19.00;57.20;;;;;;5018568;28;20032;-67
2024/02/04 07:29:47;;;;;;;0.52;0.30;;;19.00;57.20;;;;;;5023472;28;20181;-67
2024/02/04 07:32:14;;;;;;;0.22;0.20;;;19.00;57.20;;;;;;5020368;28;20439;-67
2024/02/04 07:34:40;;;;;;;0.50;0.28;;;19.00;57.20;;;;;;5021725;28;20504;-67
2024/02/04 07:37:05;;;;;;;0.88;0.20;;;19.00;57.20;;;;;;5019751;28;20047;-67
2024/02/04 07:39:31;;;;;;;0.52;0.25;;;19.00;57.20;;;;;;5021329;28;20117;-67
2024/02/04 07:41:59;;;;;;;0.47;0.28;;;19.00;57.10;;;;;;5025869;28;20037;-67
2024/02/04 07:44:26;;;;;;;0.30;0.30;;;19.00;57.10;;;;;;5003989;28;20040;-66
2024/02/04 07:46:51;;;;;;;0.38;0.30;;;19.00;57.10;;;;;;5007014;28;20123;-67
2024/02/04 07:49:17;;;;;;;0.10;0.10;;;19.10;57.10;;;;;;5002521;28;20504;-67
2024/02/04 07:51:42;;;;;;;0.43;0.30;;;19.00;57.10;;;;;;5021581;28;20035;-67
2024/02/04 07:54:08;;;;;;;0.25;0.25;;;19.00;57.10;;;;;;5004593;28;20519;-67
2024/02/04 07:56:33;;;;;;;0.30;0.20;;;19.00;57.10;;;;;;5020887;28;20064;-67
2024/02/04 07:58:59;;;;;;;5.13;0.22;;;19.00;57.10;;;;;;5023514;28;20033;-68
2024/02/04 08:01:24;;;;;;;0.47;0.40;;;18.90;57.10;;;;;;5018510;28;20790;-67
2024/02/04 08:03:50;;;;;;;0.40;0.20;;;18.90;57.10;;;;;;5021107;28;20072;-67
2024/02/04 08:06:15;;;;;;;0.85;0.28;;;18.90;57.10;;;;;;5018350;28;20026;-66
2024/02/04 08:08:42;;;;;;;0.68;0.30;;;18.90;57.70;;;;;;5002386;28;20021;-68
2024/02/04 08:11:07;;;;;;;0.25;0.20;;;18.90;57.30;;;;;;5005706;28;20022;-68
2024/02/04 08:13:33;;;;;;;0.73;0.20;;;18.90;57.20;;;;;;5023642;28;20034;-67
2024/02/04 08:15:59;;;;;;;0.30;0.25;;;19.00;57.10;;;;;;5009834;28;20075;-68
2024/02/04 08:18:24;;;;;;;2.15;0.30;;;19.00;57.00;;;;;;5018273;28;20029;-66
2024/02/04 08:20:50;;;;;;;0.93;0.30;;;19.00;57.00;;;;;;5019369;28;20026;-67
2024/02/04 08:23:15;;;;;;;1.48;0.28;;;18.90;57.00;;;;;;5021998;28;20029;-68
2024/02/04 08:25:41;;;;;;;1.20;0.20;;;18.90;57.10;;;;;;5020210;28;20060;-67
2024/02/04 08:28:06;;;;;;;0.60;0.20;;;18.90;57.10;;;;;;5025298;28;20033;-69
2024/02/04 08:30:32;;;;;;;2.17;0.30;;;18.90;57.10;;;;;;5022068;28;20378;-68
2024/02/04 08:32:57;;;;;;;1.50;0.20;;;18.80;57.10;;;;;;5026247;28;20041;-67
2024/02/04 08:35:23;;;;;;;1.40;0.30;;;18.80;57.10;;;;;;5025282;28;20028;-67
2024/02/04 08:37:48;;;;;;;0.30;0.20;;;18.80;57.10;;;;;;5023729;28;20033;-68
2024/02/04 08:40:14;;;;;;;2.40;0.20;;;18.80;57.10;;;;;;5024294;28;20056;-68
2024/02/04 08:42:40;;;;;;;1.65;0.30;;;18.80;57.10;;;;;;5024218;28;20106;-69
2024/02/04 08:45:06;;;;;;;0.47;0.13;;;18.80;57.10;;;;;;5025177;28;20562;-67
2024/02/04 08:47:31;;;;;;;3.80;0.60;;;18.80;57.20;;;;;;5022300;28;20064;-67
2024/02/04 08:49:57;;;;;;;2.65;0.30;;;18.70;57.10;;;;;;5022786;28;20045;-68
2024/02/04 08:52:24;;;;;;;1.00;0.30;;;18.70;57.10;;;;;;5025590;28;20508;-68
2024/02/04 08:54:50;;;;;;;0.80;0.30;;;18.70;57.10;;;;;;5022690;28;20042;-67
2024/02/04 08:57:16;;;;;;;0.88;0.30;;;18.70;57.20;;;;;;5030021;28;20094;-68
2024/02/04 08:59:42;;;;;;;2.05;0.30;;;18.70;57.20;;;;;;5022978;28;20512;-68
2024/02/04 09:02:08;;;;;;;2.38;0.30;;;18.70;57.20;;;;;;5026678;28;20055;-67
2024/02/04 09:04:40;;;;;;;2.38;0.30;;;18.60;57.10;;;;;;5023307;28;20106;-65
2024/02/04 09:07:06;;;;;;;0.60;0.30;;;18.70;57.10;;;;;;5026448;28;20033;-66
2024/02/04 09:09:31;;;;;;;1.58;0.40;;;18.70;57.20;;;;;;5020546;28;20021;-68
2024/02/04 09:11:57;;;;;;;1.88;0.40;;;18.70;57.20;;;;;;5023801;28;20066;-67
2024/02/04 09:14:22;;;;;;;6.20;0.75;;;18.60;57.10;;;;;;5013785;28;20057;-67
2024/02/04 09:16:48;;;;;;;3.22;0.40;;;18.70;57.10;;;;;;5020092;28;20488;-69
2024/02/04 09:19:13;;;;;;;1.10;0.52;;;18.70;57.10;;;;;;5012754;28;20128;-69
2024/02/04 09:21:39;;;;;;;1.08;0.43;;;18.70;57.00;;;;;;5016840;28;20037;-68
2024/02/04 09:24:04;;;;;;;2.55;0.20;;;18.70;56.80;;;;;;5026191;28;20735;-69
2024/02/04 09:26:30;;;;;;;4.75;0.63;;;18.70;56.70;;;;;;5014144;28;20045;-69
2024/02/04 09:28:56;;;;;;;4.32;0.63;;;18.80;56.70;;;;;;5025558;28;20049;-69
2024/02/04 09:31:21;;;;;;;2.40;0.73;;;18.80;56.60;;;;;;5012195;28;20076;-69
2024/02/04 09:33:47;;;;;;;0.73;0.45;;;18.80;56.40;;;;;;5022008;28;20025;-68
2024/02/04 09:36:12;;;;;;;2.25;0.50;;;18.90;56.30;;;;;;5005899;28;20108;-69
2024/02/04 09:38:38;;;;;;;2.42;0.30;;;19.00;56.20;;;;;;5021647;28;20163;-69
2024/02/04 09:41:04;;;;;;;2.60;0.40;;;19.00;56.20;;;;;;5021198;28;20025;-68
2024/02/04 09:43:34;;;;;;;1.80;0.32;;;19.00;56.00;;;;;;5018846;28;20026;-68
2024/02/04 09:46:00;;;;;;;1.70;0.30;;;19.10;56.00;;;;;;5016458;28;20037;-67
2024/02/04 09:48:31;;;;;;;1.95;0.40;;;19.20;56.00;;;;;;5021096;28;20025;-67
2024/02/04 09:50:57;;;;;;;3.22;0.40;;;19.30;56.00;;;;;;5020910;28;20091;-67
2024/02/04 09:53:34;;;;;;;2.53;1.00;;;19.40;56.60;;;;;;5008124;28;20500;-67
2024/02/04 09:56:03;;;;;;;10.05;0.70;;;19.50;56.30;;;;;;5019208;28;20061;-66
2024/02/04 09:58:28;;;;;;;4.40;0.82;;;19.60;56.60;;;;;;5012773;28;20779;-66
2024/02/04 10:00:54;;;;;;;12.10;1.38;;;19.60;56.30;;;;;;5018186;28;20048;-67
2024/02/04 10:03:20;;;;;;;7.13;0.90;;;19.60;56.60;;;;;;5000738;28;20060;-66
2024/02/04 10:05:46;;;;;;;4.90;1.00;;;19.70;56.60;;;;;;5015921;28;21038;-66
2024/02/04 10:08:12;;;;;;;5.25;0.52;;;19.70;56.40;;;;;;5015198;28;20526;-66
2024/02/04 10:10:38;;;;;;;8.18;1.52;;;19.80;56.30;;;;;;5014094;28;20037;-66
2024/02/04 10:13:07;;;;;;;13.25;1.27;;;19.70;56.20;;;;;;5001819;28;20520;-68
2024/02/04 10:15:32;;;;;;;16.58;1.48;;;19.80;56.30;;;;;;4994102;28;20117;-68
2024/02/04 10:17:58;;;;;;;4.40;1.10;;;19.70;56.40;;;;;;4995920;28;20431;-68
2024/02/04 10:20:23;;;;;;;7.97;1.00;;;19.70;56.20;;;;;;5013659;28;20075;-69
2024/02/04 10:22:49;;;;;;;9.35;1.30;;;19.60;56.20;;;;;;5010722;28;20064;-68
2024/02/04 10:25:16;;;;;;;10.93;2.00;;;19.50;56.40;;;;;;4997490;28;20133;-69
2024/02/04 10:27:42;;;;;;;18.10;1.48;;;19.40;56.60;;;;;;5017163;28;20045;-67
2024/02/04 10:30:08;;;;;;;18.10;1.58;;;19.40;56.50;;;;;;5011704;28;20092;-65
2024/02/04 10:32:34;;;;;;;11.68;1.25;;;19.40;56.50;;;;;;4993142;28;20052;-67
2024/02/04 10:35:00;;;;;;;13.32;1.30;;;19.40;56.30;;;;;;5016202;28;20488;-66
2024/02/04 10:37:26;;;;;;;11.23;1.40;;;19.30;56.10;;;;;;5014044;28;20087;-67
2024/02/04 10:39:52;;;;;;;11.77;1.25;;;19.30;56.30;;;;;;4999279;28;20038;-67
2024/02/04 10:42:24;;;;;;;7.80;1.20;;;19.40;56.30;;;;;;5014080;28;20038;-68
2024/02/04 10:44:51;;;;;;;11.27;1.42;;;19.50;56.40;;;;;;5014061;28;20125;-69
2024/02/04 10:47:27;;;;;;;8.60;1.20;;;19.40;56.30;;;;;;5016398;28;20067;-67
2024/02/04 10:49:53;;;;;;;8.25;1.63;;;19.40;56.40;;;;;;5016954;28;20038;-68
2024/02/04 10:52:20;;;;;;;7.45;1.35;;;19.30;56.50;;;;;;5016115;28;20034;-68
2024/02/04 10:54:47;;;;;;;8.15;1.08;;;19.30;56.60;;;;;;5014130;28;20045;-69
2024/02/04 10:57:16;;;;;;;6.38;1.00;;;19.20;56.70;;;;;;5015509;28;20033;-70
2024/02/04 10:59:43;;;;;;;8.38;1.33;;;19.20;56.80;;;;;;5012351;28;20060;-70
2024/02/04 11:02:10;;;;;;;8.57;1.33;;;19.20;56.80;;;;;;5009793;28;20524;-69
2024/02/04 11:04:37;;;;;;;15.63;2.20;;;19.20;57.00;;;;;;5011095;28;20037;-69
2024/02/04 11:07:04;;;;;;;13.95;1.77;;;19.20;57.10;;;;;;5012749;28;20045;-69
2024/02/04 11:09:29;;;;;;;14.93;1.63;;;19.20;57.60;;;;;;5014112;28;20704;-70
2024/02/04 11:11:58;;;;;;;8.88;1.70;;;19.20;57.70;;;;;;5013081;28;20038;-70
2024/02/04 11:14:25;;;;;;;14.88;1.55;;;19.20;57.80;;;;;;5013750;28;20037;-70
2024/02/04 11:17:21;;;;;;;13.10;1.80;;;19.20;57.60;;;;;;5016318;28;20111;-69
2024/02/04 11:20:20;;;;;;;10.43;2.47;;;19.10;57.80;;;;;;5013807;28;20041;-70
2024/02/04 11:23:05;;;;;;;12.23;2.20;;;19.10;58.10;;;;;;5013468;28;20029;-70
2024/02/04 11:25:56;;;;;;;10.57;1.85;;;19.10;58.30;;;;;;5014754;28;20044;-70
2024/02/04 11:28:22;;;;;;;11.70;2.50;;;19.10;58.30;;;;;;5009621;28;20034;-70
2024/02/04 11:30:50;;;;;;;11.32;1.90;;;19.10;58.30;;;;;;5013360;28;20095;-69
2024/02/04 11:33:18;;;;;;;4.97;1.48;;;19.10;58.50;;;;;;5016082;28;20468;-70
2024/02/04 11:35:44;;;;;;;10.25;1.70;;;19.10;58.50;;;;;;5017796;28;20037;-69
2024/02/04 11:38:11;;;;;;;8.35;1.65;;;19.10;58.30;;;;;;5009008;28;20037;-70
2024/02/04 11:40:37;;;;;;;6.03;1.45;;;19.10;58.20;;;;;;5020389;28;20048;-69
2024/02/04 11:43:13;;;;;;;9.63;1.90;;;19.10;58.40;;;;;;5018821;28;20408;-69
2024/02/04 11:45:40;;;;;;;8.52;1.85;;;19.10;58.40;;;;;;5022192;28;20080;-67
2024/02/04 11:48:16;;;;;;;9.35;2.40;;;19.10;58.50;;;;;;5014251;28;20068;-64
2024/02/04 11:50:42;;;;;;;9.90;1.88;;;19.10;58.40;;;;;;5000611;28;20054;-68
2024/02/04 11:53:12;;;;;;;14.75;2.50;;;19.10;58.70;;;;;;5015481;28;20042;-67
2024/02/04 11:55:41;;;;;;;14.82;2.35;;;19.10;58.70;;;;;;4992797;28;20061;-66
2024/02/04 11:58:09;;;;;;;9.88;2.03;;;19.20;59.30;;;;;;5013443;28;20091;-67
2024/02/04 12:00:34;;;;;;;7.75;1.90;;;19.10;59.80;;;;;;5011494;28;20056;-68
2024/02/04 12:03:05;;;;;;;11.80;1.88;;;19.10;59.90;;;;;;5012487;28;20072;-66
2024/02/04 12:05:38;;;;;;;8.88;1.80;;;19.10;59.70;;;;;;5014699;28;20519;-66
2024/02/04 12:08:06;;;;;;;14.77;1.95;;;19.10;60.10;;;;;;5015746;28;20068;-67
2024/02/04 12:10:32;;;;;;;11.38;2.22;;;19.10;60.20;;;;;;5014588;28;20029;-66
2024/02/04 12:13:03;;;;;;;13.93;2.00;;;19.10;60.10;;;;;;5012036;28;20107;-68
2024/02/04 12:15:30;;;;;;;10.35;1.42;;;19.10;60.40;;;;;;5020041;28;20033;-67
2024/02/04 12:17:56;;;;;;;12.30;2.22;;;19.10;60.90;;;;;;4995339;28;20095;-65
2024/02/04 12:20:21;;;;;;;11.52;2.00;;;19.10;60.80;;;;;;5014511;28;20515;-65
2024/02/04 12:22:48;;;;;;;12.00;2.65;;;19.00;60.90;;;;;;5010766;28;20051;-68
2024/02/04 12:25:14;;;;;;;18.33;5.20;;;19.10;61.00;;;;;;5018790;28;20034;-69
2024/02/04 12:27:40;;;;;;;14.75;6.40;;;19.00;61.00;;;;;;4994663;28;20135;-65
2024/02/04 12:30:07;;;;;;;14.70;5.75;;;19.10;61.20;;;;;;5011698;28;20045;-69
2024/02/04 12:32:32;;;;;;;15.10;5.85;;;19.00;61.40;;;;;;5010364;28;20083;-69
2024/02/04 12:34:58;;;;;;;15.48;5.20;;;19.10;61.80;;;;;;5014666;28;20504;-66
2024/02/04 12:37:24;;;;;;;14.02;5.93;;;19.00;61.50;;;;;;5015205;28;20038;-66
2024/02/04 12:39:50;;;;;;;16.55;4.70;;;19.00;61.60;;;;;;5014761;28;20120;-68
2024/02/04 12:42:21;;;;;;;11.27;4.63;;;19.00;60.40;;;;;;5011637;28;20113;-68